Time;durP1;ratioP1;P1;durP2;ratioP2;P2;SDS_P1;SDS_P2;PMS_P1;PMS_P2;Temp;Humidity;BMP_temperature;BMP_pressure;BME280_temperature;BME280_humidity;BME280_pressure;Samples;Min_cycle;Max_cycle;Signal;HPM_P1;HPM_P2
2021/07/14 00:02:04;;;;;;;2.83;1.67;;;17.90;76.80;;;;;;2405228;55;21018;-73
2021/07/14 00:04:31;;;;;;;4.30;1.52;;;18.00;76.90;;;;;;2320707;55;21584;-74
2021/07/14 00:06:58;;;;;;;4.28;1.62;;;18.00;76.90;;;;;;2257078;55;21137;-74
2021/07/14 00:09:25;;;;;;;3.97;1.70;;;17.90;76.80;;;;;;2237066;56;21111;-73
2021/07/14 00:11:57;;;;;;;3.35;1.92;;;17.90;76.90;;;;;;2237612;56;21010;-73
2021/07/14 00:23:07;;;;;;;2.60;1.42;;;17.90;76.80;;;;;;2238769;56;20990;-74
2021/07/14 00:25:33;;;;;;;3.15;1.70;;;17.90;76.90;;;;;;2235801;56;21401;-72
2021/07/14 00:28:00;;;;;;;3.67;1.70;;;17.90;77.00;;;;;;2240296;56;21885;-73
2021/07/14 00:30:28;;;;;;;3.80;1.70;;;17.90;77.10;;;;;;2234371;56;20947;-74
2021/07/14 00:32:54;;;;;;;3.17;1.50;;;17.90;77.10;;;;;;2269566;56;20946;-74
2021/07/14 00:35:23;;;;;;;2.80;1.58;;;17.90;77.20;;;;;;2355413;55;21923;-74
2021/07/14 00:37:50;;;;;;;2.28;1.40;;;17.90;77.20;;;;;;2263915;56;21004;-73
2021/07/14 00:40:19;;;;;;;3.50;1.50;;;17.90;77.10;;;;;;2235012;56;20942;-73
2021/07/14 00:42:46;;;;;;;3.05;1.48;;;17.90;77.10;;;;;;2239948;55;20884;-73
2021/07/14 00:45:15;;;;;;;2.80;1.60;;;17.90;77.00;;;;;;2237358;55;21051;-73
2021/07/14 00:47:49;;;;;;;3.10;1.37;;;17.90;77.00;;;;;;2238097;56;20958;-75
2021/07/14 00:50:19;;;;;;;3.40;1.60;;;17.90;76.90;;;;;;2239344;56;21062;-74
2021/07/14 00:52:48;;;;;;;3.58;1.55;;;17.80;76.70;;;;;;2446597;55;21962;-76
2021/07/14 00:55:15;;;;;;;2.28;1.30;;;17.80;76.90;;;;;;2236870;56;21086;-74
2021/07/14 00:57:41;;;;;;;2.80;1.45;;;17.80;76.90;;;;;;2237745;56;20978;-74
2021/07/14 01:00:09;;;;;;;2.75;1.48;;;17.90;77.00;;;;;;2237276;56;20967;-72
2021/07/14 01:02:35;;;;;;;2.50;1.48;;;17.80;76.80;;;;;;2237445;56;21089;-74
2021/07/14 01:05:19;;;;;;;4.37;1.48;;;17.80;76.90;;;;;;2248226;56;21424;-73
2021/07/14 01:08:08;;;;;;;3.30;1.70;;;17.90;76.60;;;;;;2315142;55;20977;-73
2021/07/14 01:11:05;;;;;;;2.92;1.30;;;17.80;76.60;;;;;;2223288;55;21188;-73
2021/07/14 01:14:23;;;;;;;2.62;1.58;;;17.80;76.40;;;;;;2237239;56;21109;-75
2021/07/14 01:16:56;;;;;;;2.58;1.40;;;17.80;76.80;;;;;;2237930;56;20990;-74
2021/07/14 01:20:16;;;;;;;2.33;1.42;;;17.80;76.80;;;;;;2239749;56;21002;-72
2021/07/14 01:24:16;;;;;;;3.30;1.37;;;17.80;76.20;;;;;;2351035;56;21573;-73
2021/07/14 01:27:18;;;;;;;2.75;1.75;;;17.80;76.70;;;;;;2247175;55;20975;-74
2021/07/14 01:29:54;;;;;;;3.60;2.20;;;17.80;76.40;;;;;;2249559;55;21569;-76
2021/07/14 01:32:23;;;;;;;2.78;1.80;;;17.80;76.90;;;;;;2236701;56;21916;-74
2021/07/14 01:34:51;;;;;;;3.58;1.80;;;17.80;77.00;;;;;;2371287;55;20990;-76
2021/07/14 01:37:21;;;;;;;3.30;1.92;;;17.80;77.10;;;;;;2348971;55;21025;-74
2021/07/14 01:39:48;;;;;;;4.10;1.90;;;17.70;77.00;;;;;;2237668;56;20986;-76
2021/07/14 01:42:15;;;;;;;2.42;1.40;;;17.70;77.00;;;;;;2454245;55;21090;-73
2021/07/14 01:44:41;;;;;;;3.97;1.60;;;17.70;77.20;;;;;;2242882;56;20958;-73
2021/07/14 01:47:07;;;;;;;2.42;1.60;;;17.70;77.20;;;;;;2373671;55;20970;-73
2021/07/14 01:49:35;;;;;;;3.92;1.85;;;17.70;77.30;;;;;;2235706;56;21785;-73
2021/07/14 01:52:18;;;;;;;2.62;1.52;;;17.70;77.30;;;;;;2240585;55;21933;-74
2021/07/14 01:54:45;;;;;;;2.50;1.40;;;17.70;77.20;;;;;;2223461;55;20946;-76
2021/07/14 01:57:12;;;;;;;6.43;1.62;;;17.70;77.20;;;;;;2277833;55;21028;-73
2021/07/14 01:59:39;;;;;;;2.28;1.20;;;17.70;77.20;;;;;;2408460;55;21811;-74
2021/07/14 02:02:06;;;;;;;3.10;1.67;;;17.70;77.10;;;;;;2350928;55;21002;-73
2021/07/14 02:04:33;;;;;;;3.08;1.20;;;17.80;77.10;;;;;;2319213;55;20978;-75
2021/07/14 02:07:05;;;;;;;3.12;1.90;;;17.80;77.10;;;;;;2280716;55;21489;-74
2021/07/14 02:09:42;;;;;;;5.50;1.52;;;17.70;76.90;;;;;;2295186;55;20954;-73
2021/07/14 02:12:13;;;;;;;4.72;1.60;;;17.80;76.80;;;;;;2240030;56;21058;-74
2021/07/14 02:14:54;;;;;;;3.22;1.50;;;17.80;77.10;;;;;;2222173;56;20970;-73
2021/07/14 02:17:25;;;;;;;3.28;1.20;;;17.80;76.80;;;;;;2380379;55;21147;-73
2021/07/14 02:20:06;;;;;;;3.35;1.42;;;17.70;76.70;;;;;;2241614;56;21047;-74
2021/07/14 02:22:35;;;;;;;2.80;1.33;;;17.70;76.60;;;;;;2229303;56;21054;-73
2021/07/14 02:25:05;;;;;;;2.72;1.33;;;17.70;76.80;;;;;;2238499;56;20994;-73
2021/07/14 02:27:32;;;;;;;3.22;1.40;;;17.70;77.30;;;;;;2237732;56;21760;-76
2021/07/14 02:29:58;;;;;;;2.12;1.12;;;17.70;76.70;;;;;;2279651;55;21061;-73
2021/07/14 02:32:25;;;;;;;2.55;1.10;;;17.70;76.70;;;;;;2247510;55;21156;-74
2021/07/14 02:34:53;;;;;;;2.50;1.30;;;17.70;76.70;;;;;;2274332;55;20990;-72
2021/07/14 02:38:07;;;;;;;2.95;1.70;;;17.70;76.70;;;;;;2241445;56;21877;-73
2021/07/14 02:42:10;;;;;;;2.45;1.30;;;17.70;75.90;;;;;;2342426;55;21074;-73
2021/07/14 02:44:39;;;;;;;2.58;1.25;;;17.70;75.80;;;;;;2453240;55;21022;-73
2021/07/14 02:47:09;;;;;;;2.17;1.23;;;17.60;76.60;;;;;;2246750;56;21109;-74
2021/07/14 02:49:39;;;;;;;2.50;1.42;;;17.60;76.50;;;;;;2454019;55;20986;-72
2021/07/14 02:52:08;;;;;;;2.30;1.30;;;17.60;76.50;;;;;;2239600;56;21015;-74
2021/07/14 02:54:37;;;;;;;2.75;1.35;;;17.60;76.50;;;;;;2241690;55;20970;-72
2021/07/14 02:57:04;;;;;;;2.67;1.45;;;17.60;76.50;;;;;;2302698;55;20980;-74
2021/07/14 02:59:45;;;;;;;2.60;1.45;;;17.60;76.50;;;;;;2281068;56;20950;-73
2021/07/14 03:02:13;;;;;;;2.60;1.60;;;17.50;76.50;;;;;;2240419;56;21005;-74
2021/07/14 03:04:40;;;;;;;2.92;1.30;;;17.50;76.50;;;;;;2238146;56;21436;-73
2021/07/14 03:07:08;;;;;;;3.33;1.50;;;17.50;76.60;;;;;;2290081;56;21022;-76
2021/07/14 03:09:39;;;;;;;3.25;1.60;;;17.50;76.70;;;;;;2249730;55;21066;-73
2021/07/14 03:12:11;;;;;;;2.87;1.60;;;17.50;76.60;;;;;;2278662;55;20998;-73
2021/07/14 03:14:49;;;;;;;2.92;1.45;;;17.50;76.60;;;;;;2221795;56;20974;-73
2021/07/14 03:17:16;;;;;;;3.50;1.45;;;17.50;76.70;;;;;;2240691;56;22114;-74
2021/07/14 03:19:44;;;;;;;2.67;1.58;;;17.50;76.80;;;;;;2305229;55;21098;-73
2021/07/14 03:22:11;;;;;;;3.35;1.58;;;17.50;76.80;;;;;;2239075;56;20962;-73
2021/07/14 03:24:37;;;;;;;4.22;1.42;;;17.50;76.80;;;;;;2370753;55;21062;-73
2021/07/14 03:27:07;;;;;;;3.65;1.33;;;17.50;76.90;;;;;;2236545;56;20989;-73
2021/07/14 03:29:34;;;;;;;3.55;1.67;;;17.50;76.90;;;;;;2398418;55;21387;-73
2021/07/14 03:32:01;;;;;;;2.80;1.40;;;17.50;76.90;;;;;;2286285;55;21111;-73
2021/07/14 03:34:27;;;;;;;2.83;1.62;;;17.50;76.90;;;;;;2414007;55;21470;-74
2021/07/14 03:36:54;;;;;;;3.50;1.73;;;17.50;77.00;;;;;;2236154;56;21015;-73
2021/07/14 03:39:21;;;;;;;2.78;1.70;;;17.50;77.00;;;;;;2237550;56;21023;-73
2021/07/14 03:41:47;;;;;;;3.20;1.85;;;17.50;77.00;;;;;;2241034;56;21101;-76
2021/07/14 03:44:14;;;;;;;3.83;1.98;;;17.50;77.00;;;;;;2281644;56;21078;-75
2021/07/14 03:46:42;;;;;;;2.70;1.60;;;17.50;77.00;;;;;;2244992;56;21629;-74
2021/07/14 03:49:13;;;;;;;3.03;1.60;;;17.50;76.80;;;;;;2329118;55;21038;-72
2021/07/14 03:51:41;;;;;;;2.92;1.60;;;17.50;76.80;;;;;;2454579;55;20954;-75
2021/07/14 03:54:10;;;;;;;3.42;1.75;;;17.50;76.80;;;;;;2268951;56;21029;-73
2021/07/14 03:56:37;;;;;;;3.05;1.65;;;17.40;76.80;;;;;;2238139;56;20978;-73
2021/07/14 03:59:04;;;;;;;2.90;1.52;;;17.40;76.90;;;;;;2245770;56;20998;-75
2021/07/14 04:01:30;;;;;;;4.82;1.67;;;17.40;77.00;;;;;;2250126;55;21008;-73
2021/07/14 04:03:57;;;;;;;3.33;1.50;;;17.40;77.00;;;;;;2370796;56;20987;-73
2021/07/14 04:06:23;;;;;;;3.35;1.50;;;17.40;77.00;;;;;;2239927;56;21817;-73
2021/07/14 04:09:41;;;;;;;2.62;1.40;;;17.50;77.20;;;;;;2239849;56;20978;-73
2021/07/14 04:12:08;;;;;;;3.37;1.30;;;17.50;76.90;;;;;;2244341;56;20982;-74
2021/07/14 04:14:34;;;;;;;2.80;1.50;;;17.50;77.20;;;;;;2240127;56;21025;-74
2021/07/14 04:17:01;;;;;;;2.65;1.55;;;17.50;77.20;;;;;;2285497;55;20950;-72
2021/07/14 04:19:27;;;;;;;3.08;1.67;;;17.50;77.30;;;;;;2238700;56;20990;-75
2021/07/14 04:21:53;;;;;;;2.58;1.50;;;17.50;77.20;;;;;;2243184;55;21409;-73
2021/07/14 04:24:20;;;;;;;2.83;1.73;;;17.50;77.20;;;;;;2263937;55;21046;-73
2021/07/14 04:26:49;;;;;;;2.72;1.65;;;17.50;77.30;;;;;;2420440;55;21042;-74
2021/07/14 04:29:17;;;;;;;2.83;1.70;;;17.50;77.30;;;;;;2238981;56;21562;-72
2021/07/14 04:31:52;;;;;;;3.00;1.50;;;17.50;77.50;;;;;;2241179;56;20934;-73
2021/07/14 04:34:18;;;;;;;3.22;1.35;;;17.50;77.20;;;;;;2237945;56;20986;-74
2021/07/14 04:36:44;;;;;;;3.95;1.67;;;17.50;77.50;;;;;;2357716;55;21434;-72
2021/07/14 04:39:11;;;;;;;3.80;1.62;;;17.50;77.50;;;;;;2348909;56;20982;-73
2021/07/14 04:41:37;;;;;;;3.47;1.65;;;17.50;77.40;;;;;;2240596;56;21803;-73
2021/07/14 04:44:08;;;;;;;2.72;1.52;;;17.50;77.40;;;;;;2238711;56;21095;-75
2021/07/14 04:46:35;;;;;;;4.07;1.73;;;17.50;77.40;;;;;;2284089;56;21075;-72
2021/07/14 04:49:04;;;;;;;2.60;1.42;;;17.60;77.60;;;;;;2225769;56;21049;-73
2021/07/14 04:51:30;;;;;;;4.28;1.70;;;17.60;77.60;;;;;;2339414;55;20987;-75
2021/07/14 04:53:56;;;;;;;2.85;1.50;;;17.60;77.70;;;;;;2262056;55;21082;-71
2021/07/14 04:56:23;;;;;;;2.60;1.70;;;17.60;77.70;;;;;;2235707;55;21000;-73
2021/07/14 04:58:50;;;;;;;4.15;1.92;;;17.60;77.80;;;;;;2460266;55;21074;-73
2021/07/14 05:01:16;;;;;;;2.85;1.70;;;17.60;77.80;;;;;;2242925;55;21879;-73
2021/07/14 05:03:48;;;;;;;3.28;1.60;;;17.60;77.90;;;;;;2456410;55;21058;-73
2021/07/14 05:06:15;;;;;;;2.70;1.80;;;17.70;78.00;;;;;;2273226;55;21070;-74
2021/07/14 05:08:41;;;;;;;2.80;1.62;;;17.70;78.20;;;;;;2260884;55;21567;-75
2021/07/14 05:11:08;;;;;;;2.65;1.45;;;17.70;78.30;;;;;;2259567;55;21001;-73
2021/07/14 05:13:34;;;;;;;4.20;2.33;;;17.80;78.50;;;;;;2266776;55;20986;-76
2021/07/14 05:16:01;;;;;;;3.72;2.33;;;17.80;78.50;;;;;;2379100;55;21108;-73
2021/07/14 05:18:28;;;;;;;4.07;1.67;;;17.90;78.60;;;;;;2263118;55;21083;-73
2021/07/14 05:20:55;;;;;;;2.60;1.67;;;17.90;78.60;;;;;;2231988;55;20978;-74
2021/07/14 05:23:26;;;;;;;3.08;1.70;;;17.90;78.70;;;;;;2267932;55;21928;-76
2021/07/14 05:25:53;;;;;;;5.25;1.92;;;17.90;78.80;;;;;;2240720;56;21046;-73
2021/07/14 05:28:20;;;;;;;3.37;1.80;;;18.00;79.00;;;;;;2242155;56;20958;-72
2021/07/14 05:30:48;;;;;;;3.28;1.80;;;18.00;79.20;;;;;;2237805;56;21414;-71
2021/07/14 05:33:15;;;;;;;3.83;1.85;;;18.10;79.20;;;;;;2238683;56;20999;-73
2021/07/14 05:35:41;;;;;;;2.95;1.85;;;18.10;79.30;;;;;;2238426;55;20978;-74
2021/07/14 05:38:07;;;;;;;2.97;1.73;;;18.20;79.40;;;;;;2237645;56;20998;-74
2021/07/14 05:40:34;;;;;;;2.70;1.50;;;18.20;79.50;;;;;;2238067;56;21705;-74
2021/07/14 05:43:30;;;;;;;3.28;1.85;;;18.30;79.60;;;;;;2238496;56;21004;-73
2021/07/14 05:46:14;;;;;;;3.33;2.05;;;18.30;79.10;;;;;;2238217;56;21310;-73
2021/07/14 05:48:42;;;;;;;3.33;2.00;;;18.40;79.10;;;;;;2453400;55;21048;-73
2021/07/14 05:51:09;;;;;;;4.45;1.80;;;18.50;79.80;;;;;;2240398;56;20990;-74
2021/07/14 05:53:36;;;;;;;3.33;2.05;;;18.50;79.80;;;;;;2333786;55;21122;-73
2021/07/14 05:56:02;;;;;;;4.10;1.87;;;18.60;79.80;;;;;;2240319;56;20930;-74
2021/07/14 05:58:28;;;;;;;2.80;1.50;;;18.60;79.70;;;;;;2234111;56;21042;-74
2021/07/14 06:00:56;;;;;;;2.87;1.50;;;18.70;79.80;;;;;;2450716;55;21047;-74
2021/07/14 06:03:22;;;;;;;3.05;1.83;;;18.70;79.80;;;;;;2263317;55;20991;-74
2021/07/14 06:05:48;;;;;;;3.95;2.12;;;18.80;79.90;;;;;;2329939;55;20974;-72
2021/07/14 06:08:15;;;;;;;3.58;2.00;;;18.80;79.80;;;;;;2255259;55;21007;-75
2021/07/14 06:10:44;;;;;;;4.60;2.30;;;18.90;79.80;;;;;;2240145;55;21002;-73
2021/07/14 06:13:10;;;;;;;3.40;1.90;;;18.90;79.70;;;;;;2240321;55;20962;-75
2021/07/14 06:15:37;;;;;;;2.90;1.73;;;19.00;79.80;;;;;;2472472;55;21050;-73
2021/07/14 06:18:03;;;;;;;3.47;1.90;;;19.10;80.00;;;;;;2278219;55;22012;-74
2021/07/14 06:20:30;;;;;;;4.47;1.83;;;19.10;79.90;;;;;;2235897;55;21159;-75
2021/07/14 06:22:56;;;;;;;5.20;2.37;;;19.10;79.80;;;;;;2296688;55;20967;-74
2021/07/14 06:25:22;;;;;;;4.45;2.37;;;19.20;79.70;;;;;;2366358;55;21078;-74
2021/07/14 06:27:49;;;;;;;3.55;2.22;;;19.30;79.80;;;;;;2315365;55;21630;-73
2021/07/14 06:30:16;;;;;;;3.42;1.62;;;19.30;79.70;;;;;;2241137;56;20982;-73
2021/07/14 06:32:51;;;;;;;2.20;1.30;;;19.30;79.80;;;;;;2329040;55;21047;-73
2021/07/14 06:35:18;;;;;;;3.22;2.10;;;19.40;79.70;;;;;;2391295;55;20995;-76
2021/07/14 06:37:44;;;;;;;3.45;1.95;;;19.50;80.00;;;;;;2357086;55;21054;-73
2021/07/14 06:40:11;;;;;;;2.92;2.03;;;19.50;79.80;;;;;;2287226;55;21024;-74
2021/07/14 06:42:39;;;;;;;3.03;1.83;;;19.60;79.80;;;;;;2362110;56;21535;-73
2021/07/14 06:45:07;;;;;;;3.33;1.95;;;19.60;79.70;;;;;;2378428;55;20973;-74
2021/07/14 06:47:34;;;;;;;3.62;1.95;;;19.70;79.70;;;;;;2309522;56;20959;-74
2021/07/14 06:50:00;;;;;;;3.37;1.80;;;19.70;79.70;;;;;;2240363;56;20899;-74
2021/07/14 06:52:28;;;;;;;3.22;2.00;;;19.80;79.60;;;;;;2458222;55;21822;-74
2021/07/14 06:54:54;;;;;;;2.97;1.62;;;19.80;79.40;;;;;;2431339;55;21022;-72
2021/07/14 06:57:20;;;;;;;3.37;1.98;;;19.90;79.50;;;;;;2251975;56;22072;-74
2021/07/14 06:59:46;;;;;;;4.22;2.08;;;19.90;79.40;;;;;;2355690;55;21888;-75
2021/07/14 07:02:13;;;;;;;3.60;1.80;;;19.90;79.10;;;;;;2370696;55;21176;-73
2021/07/14 07:04:40;;;;;;;3.28;2.10;;;19.90;79.00;;;;;;2295428;56;21047;-71
2021/07/14 07:07:06;;;;;;;3.40;1.95;;;20.00;79.10;;;;;;2240848;56;20918;-74
2021/07/14 07:09:32;;;;;;;2.72;1.73;;;20.00;78.90;;;;;;2236499;56;20987;-73
2021/07/14 07:11:59;;;;;;;2.97;1.77;;;19.90;78.70;;;;;;2456365;55;20962;-74
2021/07/14 07:14:26;;;;;;;5.03;2.15;;;20.00;78.90;;;;;;2453578;55;20970;-75
2021/07/14 07:16:53;;;;;;;4.57;1.92;;;20.10;79.60;;;;;;2239233;56;21250;-72
2021/07/14 07:19:20;;;;;;;4.37;2.10;;;20.10;78.80;;;;;;2341625;56;20990;-74
2021/07/14 07:21:50;;;;;;;3.30;2.00;;;20.10;78.70;;;;;;2268397;55;21013;-74
2021/07/14 07:24:16;;;;;;;4.40;2.35;;;20.20;78.80;;;;;;2237236;56;20983;-74
2021/07/14 07:26:45;;;;;;;3.60;2.15;;;20.20;78.70;;;;;;2240475;56;21021;-74
2021/07/14 07:29:11;;;;;;;3.60;2.10;;;20.20;78.70;;;;;;2318702;55;20978;-73
2021/07/14 07:31:38;;;;;;;2.92;1.80;;;20.20;78.80;;;;;;2349315;55;21114;-74
2021/07/14 07:34:06;;;;;;;3.55;2.08;;;20.20;78.70;;;;;;2239106;56;21038;-76
2021/07/14 07:36:33;;;;;;;3.40;1.95;;;20.20;78.70;;;;;;2389848;55;21011;-74
2021/07/14 07:39:00;;;;;;;3.92;1.75;;;20.30;78.90;;;;;;2247720;56;21051;-74
2021/07/14 07:41:26;;;;;;;3.15;1.98;;;20.30;79.00;;;;;;2249494;55;20935;-75
2021/07/14 07:43:53;;;;;;;3.17;2.00;;;20.40;79.00;;;;;;2241967;56;20954;-72
2021/07/14 07:46:23;;;;;;;3.75;1.98;;;20.40;78.90;;;;;;2239397;56;21085;-72
2021/07/14 07:48:50;;;;;;;3.35;1.90;;;20.40;78.70;;;;;;2247259;56;20950;-75
2021/07/14 07:51:17;;;;;;;3.12;1.60;;;20.50;78.90;;;;;;2456710;55;21002;-76
2021/07/14 07:53:44;;;;;;;2.95;1.60;;;20.50;78.90;;;;;;2240385;56;21059;-74
2021/07/14 07:56:11;;;;;;;4.35;1.83;;;20.50;78.90;;;;;;2275649;56;22596;-74
2021/07/14 07:58:37;;;;;;;3.10;1.77;;;20.50;79.10;;;;;;2234985;56;20936;-74
2021/07/14 08:01:03;;;;;;;3.53;1.90;;;20.60;79.40;;;;;;2398893;55;21038;-73
2021/07/14 08:03:30;;;;;;;3.90;1.60;;;20.70;79.40;;;;;;2244499;55;21683;-73
2021/07/14 08:05:57;;;;;;;2.97;1.67;;;20.70;79.40;;;;;;2231100;55;20932;-73
2021/07/14 08:08:24;;;;;;;3.22;1.80;;;20.80;79.20;;;;;;2274572;55;21013;-73
2021/07/14 08:10:53;;;;;;;5.12;1.77;;;20.80;79.10;;;;;;2230149;56;20962;-74
2021/07/14 08:13:20;;;;;;;3.03;1.70;;;20.90;79.30;;;;;;2241194;56;21027;-74
2021/07/14 08:15:46;;;;;;;2.97;1.60;;;20.90;79.10;;;;;;2236793;56;21162;-73
2021/07/14 08:18:13;;;;;;;2.80;1.25;;;21.00;79.10;;;;;;2235004;56;21025;-75
2021/07/14 08:20:40;;;;;;;3.20;1.48;;;21.00;78.90;;;;;;2239872;56;20970;-74
2021/07/14 08:23:06;;;;;;;3.45;1.45;;;21.00;78.80;;;;;;2238451;56;21539;-73
2021/07/14 08:25:32;;;;;;;2.67;1.30;;;21.00;78.70;;;;;;2241978;56;21776;-74
2021/07/14 08:27:58;;;;;;;2.72;1.33;;;21.10;78.80;;;;;;2237029;56;20952;-76
2021/07/14 08:30:25;;;;;;;2.22;1.15;;;21.10;79.00;;;;;;2238149;56;21010;-74
2021/07/14 08:32:51;;;;;;;3.05;1.45;;;21.10;79.10;;;;;;2234209;56;21009;-74
2021/07/14 08:35:18;;;;;;;3.67;1.50;;;21.20;79.00;;;;;;2238071;56;20942;-75
2021/07/14 08:37:45;;;;;;;2.83;1.40;;;21.20;79.00;;;;;;2430162;55;20971;-72
2021/07/14 08:40:12;;;;;;;2.40;1.23;;;21.30;78.30;;;;;;2237629;56;20994;-74
2021/07/14 08:42:39;;;;;;;3.20;1.42;;;21.30;78.50;;;;;;2360575;55;21002;-74
2021/07/14 08:45:06;;;;;;;3.40;1.10;;;21.30;78.40;;;;;;2240982;56;21120;-74
2021/07/14 08:47:33;;;;;;;2.28;1.20;;;21.40;78.60;;;;;;2389840;55;20942;-75
2021/07/14 08:50:01;;;;;;;3.28;1.10;;;21.40;78.90;;;;;;2238284;56;20978;-74
2021/07/14 08:52:27;;;;;;;3.37;1.30;;;21.50;79.10;;;;;;2241877;56;20987;-76
2021/07/14 08:54:55;;;;;;;2.72;1.20;;;21.50;79.20;;;;;;2238109;56;21063;-74
2021/07/14 08:57:22;;;;;;;2.90;1.30;;;21.60;79.30;;;;;;2250690;55;20975;-76
2021/07/14 08:59:51;;;;;;;3.15;1.20;;;21.70;79.30;;;;;;2340022;55;20971;-75
2021/07/14 09:02:17;;;;;;;2.37;1.02;;;21.70;79.10;;;;;;2237210;56;20994;-75
2021/07/14 09:04:45;;;;;;;4.72;1.50;;;21.80;79.10;;;;;;2463652;55;20983;-76
2021/07/14 09:07:13;;;;;;;3.03;1.35;;;21.80;78.80;;;;;;2240228;55;21146;-76
2021/07/14 09:09:39;;;;;;;3.37;1.52;;;21.90;78.40;;;;;;2237563;56;20961;-73
2021/07/14 09:12:10;;;;;;;3.05;1.55;;;21.90;78.40;;;;;;2234982;56;20966;-76
2021/07/14 09:14:38;;;;;;;2.90;1.40;;;22.00;77.70;;;;;;2358474;56;21481;-74
2021/07/14 09:17:22;;;;;;;2.87;1.58;;;22.00;78.30;;;;;;2236962;56;21006;-74
2021/07/14 09:19:50;;;;;;;2.58;1.52;;;22.10;76.90;;;;;;2222912;56;20978;-74
2021/07/14 09:22:23;;;;;;;3.75;1.77;;;22.10;77.80;;;;;;2387888;55;21006;-76
2021/07/14 09:24:51;;;;;;;2.42;1.35;;;22.10;76.80;;;;;;2244773;55;21002;-75
2021/07/14 09:27:19;;;;;;;3.12;1.50;;;22.10;77.40;;;;;;2479897;55;20987;-77
2021/07/14 09:30:10;;;;;;;2.78;1.42;;;22.10;77.00;;;;;;2236699;56;21958;-75
2021/07/14 09:32:46;;;;;;;2.40;1.40;;;22.20;75.30;;;;;;2355563;55;21042;-75
2021/07/14 09:35:22;;;;;;;2.80;1.55;;;22.20;75.30;;;;;;2234649;56;20958;-74
2021/07/14 09:37:48;;;;;;;2.33;1.20;;;22.20;75.30;;;;;;2414417;56;21087;-74
2021/07/14 09:40:18;;;;;;;2.10;1.00;;;22.10;76.40;;;;;;2240622;56;21883;-75
2021/07/14 09:42:58;;;;;;;2.70;1.50;;;22.20;76.40;;;;;;2244541;55;20969;-74
2021/07/14 09:45:39;;;;;;;2.45;1.27;;;22.20;75.10;;;;;;2463315;55;20979;-73
2021/07/14 09:48:07;;;;;;;3.87;1.40;;;22.20;75.40;;;;;;2467839;55;21013;-73
2021/07/14 09:50:39;;;;;;;2.58;1.48;;;22.20;76.20;;;;;;2459231;55;20986;-74
2021/07/14 09:53:07;;;;;;;2.95;1.50;;;22.20;75.90;;;;;;2451579;55;20994;-76
2021/07/14 09:55:33;;;;;;;3.15;1.40;;;22.20;75.80;;;;;;2238152;56;21034;-74
2021/07/14 09:58:13;;;;;;;3.80;1.33;;;22.20;76.10;;;;;;2294181;56;21046;-74
2021/07/14 10:00:47;;;;;;;2.17;1.10;;;22.20;75.70;;;;;;2238821;56;20970;-73
2021/07/14 10:03:21;;;;;;;2.53;1.20;;;22.20;76.30;;;;;;2395034;55;21502;-74
2021/07/14 10:05:48;;;;;;;4.12;1.50;;;22.30;76.10;;;;;;2240807;56;20966;-75
2021/07/14 10:08:19;;;;;;;3.03;1.20;;;22.20;76.60;;;;;;2233791;56;21534;-75
2021/07/14 10:10:49;;;;;;;2.40;1.10;;;22.30;76.60;;;;;;2424373;56;21007;-75
2021/07/14 10:13:17;;;;;;;2.30;1.40;;;22.30;76.50;;;;;;2289909;55;20978;-75
2021/07/14 10:15:44;;;;;;;3.67;1.40;;;22.30;76.00;;;;;;2354838;55;20939;-74
2021/07/14 10:18:12;;;;;;;2.00;0.95;;;22.30;75.60;;;;;;2237293;56;21066;-74
2021/07/14 10:20:43;;;;;;;2.20;1.00;;;22.30;75.80;;;;;;2237231;56;21929;-73
2021/07/14 10:23:12;;;;;;;2.40;1.10;;;22.30;76.30;;;;;;2237001;56;21038;-73
2021/07/14 10:25:42;;;;;;;1.95;0.90;;;22.40;75.90;;;;;;2236971;56;20942;-75
2021/07/14 10:28:10;;;;;;;2.67;1.30;;;22.40;76.20;;;;;;2238368;56;21556;-75
2021/07/14 10:30:38;;;;;;;2.50;1.00;;;22.40;76.40;;;;;;2240060;55;20966;-75
2021/07/14 10:33:05;;;;;;;2.08;1.10;;;22.50;76.20;;;;;;2253680;56;21813;-75
2021/07/14 10:35:37;;;;;;;2.20;1.00;;;22.50;76.90;;;;;;2235891;56;21011;-75
2021/07/14 10:38:17;;;;;;;2.45;1.25;;;22.50;76.20;;;;;;2237185;56;20958;-76
2021/07/14 10:40:48;;;;;;;2.72;1.30;;;22.50;75.50;;;;;;2240546;56;21022;-75
2021/07/14 10:43:15;;;;;;;2.17;1.10;;;22.50;75.20;;;;;;2235813;55;21005;-74
2021/07/14 10:45:42;;;;;;;2.75;1.10;;;22.50;75.50;;;;;;2433781;55;21008;-74
2021/07/14 10:48:09;;;;;;;1.60;0.80;;;22.50;75.10;;;;;;2236483;56;21022;-75
2021/07/14 10:50:36;;;;;;;2.20;1.10;;;22.50;75.70;;;;;;2233953;56;20970;-75
2021/07/14 10:53:02;;;;;;;2.20;1.08;;;22.60;75.90;;;;;;2242107;56;20942;-75
2021/07/14 10:55:29;;;;;;;2.70;1.37;;;22.60;75.40;;;;;;2234497;56;21074;-75
2021/07/14 10:57:55;;;;;;;2.22;1.12;;;22.60;74.90;;;;;;2238245;56;20963;-75
2021/07/14 11:00:22;;;;;;;3.22;1.10;;;22.60;74.60;;;;;;2239664;56;21111;-75
2021/07/14 11:02:50;;;;;;;2.25;1.10;;;22.60;75.30;;;;;;2237716;56;21474;-76
2021/07/14 11:05:30;;;;;;;1.90;1.00;;;22.60;75.00;;;;;;2237854;56;21054;-75
2021/07/14 11:07:57;;;;;;;2.30;1.10;;;22.70;75.50;;;;;;2241660;56;20982;-75
2021/07/14 11:10:28;;;;;;;1.92;1.00;;;22.70;75.10;;;;;;2304439;56;21498;-74
2021/07/14 11:12:58;;;;;;;2.78;1.10;;;22.80;75.00;;;;;;2241192;56;20966;-74
2021/07/14 11:15:32;;;;;;;2.12;0.90;;;22.80;75.60;;;;;;2228684;56;20990;-75
2021/07/14 11:17:59;;;;;;;2.42;1.00;;;22.90;75.50;;;;;;2283641;56;20956;-75
2021/07/14 11:20:40;;;;;;;1.80;0.90;;;22.90;76.50;;;;;;2240789;56;21010;-75
2021/07/14 11:23:30;;;;;;;2.17;1.08;;;23.00;74.60;;;;;;2236799;56;20978;-74
2021/07/14 11:25:58;;;;;;;2.08;0.90;;;23.10;75.20;;;;;;2241188;56;21125;-75
2021/07/14 11:28:25;;;;;;;3.05;1.08;;;23.20;76.60;;;;;;2452522;55;21034;-76
2021/07/14 11:30:55;;;;;;;1.60;0.75;;;23.20;76.30;;;;;;2241238;56;20965;-75
2021/07/14 11:33:37;;;;;;;2.15;1.00;;;23.20;75.60;;;;;;2238279;56;20978;-75
2021/07/14 11:36:08;;;;;;;2.03;0.98;;;23.30;74.80;;;;;;2234120;56;21910;-74
2021/07/14 11:38:54;;;;;;;1.67;0.90;;;23.40;75.40;;;;;;2378791;56;21831;-75
2021/07/14 11:41:34;;;;;;;2.42;1.00;;;23.50;74.50;;;;;;2239882;56;21043;-75
2021/07/14 11:44:00;;;;;;;1.90;0.95;;;23.50;75.90;;;;;;2238635;56;21027;-76
2021/07/14 11:46:29;;;;;;;2.00;1.00;;;23.50;75.30;;;;;;2252191;55;20999;-75
2021/07/14 11:49:00;;;;;;;3.25;0.90;;;23.60;75.10;;;;;;2257236;55;20942;-76
2021/07/14 11:51:29;;;;;;;2.95;0.98;;;23.60;74.40;;;;;;2340617;55;20998;-75
2021/07/14 11:53:58;;;;;;;1.95;1.00;;;23.60;74.30;;;;;;2235971;56;21018;-75
2021/07/14 11:56:35;;;;;;;2.00;0.90;;;23.60;74.50;;;;;;2240242;56;22376;-74
2021/07/14 11:59:12;;;;;;;1.85;0.90;;;23.70;73.60;;;;;;2258730;56;21403;-75
2021/07/14 12:01:51;;;;;;;1.87;0.80;;;23.70;74.60;;;;;;2242922;56;21953;-75
2021/07/14 12:04:18;;;;;;;2.17;0.90;;;23.70;74.10;;;;;;2278776;56;20974;-75
2021/07/14 12:07:51;;;;;;;1.73;0.85;;;23.80;75.40;;;;;;2240014;56;21006;-75
2021/07/14 12:10:22;;;;;;;1.73;0.90;;;23.80;74.60;;;;;;2240794;56;20974;-75
2021/07/14 12:12:51;;;;;;;2.67;1.00;;;23.80;73.60;;;;;;2375732;55;20997;-75
2021/07/14 12:15:18;;;;;;;2.08;1.10;;;23.80;71.90;;;;;;2223820;56;21110;-75
2021/07/14 12:17:44;;;;;;;1.90;0.90;;;23.80;72.80;;;;;;2240687;55;21223;-74
2021/07/14 12:20:14;;;;;;;2.17;0.90;;;23.80;72.80;;;;;;2234618;56;21806;-74
2021/07/14 12:22:40;;;;;;;2.05;0.90;;;23.80;72.30;;;;;;2237949;56;20967;-75
2021/07/14 12:25:14;;;;;;;1.75;0.88;;;23.80;73.30;;;;;;2236803;56;21499;-75
2021/07/14 12:27:49;;;;;;;1.50;0.80;;;23.80;73.80;;;;;;2243381;56;20978;-75
2021/07/14 12:30:22;;;;;;;2.05;0.98;;;23.80;73.70;;;;;;2233776;56;21001;-75
2021/07/14 12:32:55;;;;;;;1.85;0.90;;;23.80;72.90;;;;;;2235511;56;21030;-75
2021/07/14 12:35:26;;;;;;;1.67;0.90;;;23.80;72.90;;;;;;2237558;56;21061;-74
2021/07/14 12:37:59;;;;;;;1.83;0.95;;;23.90;73.30;;;;;;2238604;56;21014;-75
2021/07/14 12:40:27;;;;;;;2.03;0.90;;;23.90;73.40;;;;;;2245633;55;21042;-74
2021/07/14 12:42:58;;;;;;;2.20;1.10;;;23.90;73.10;;;;;;2236478;56;20962;-75
2021/07/14 12:45:32;;;;;;;1.62;0.80;;;23.90;72.00;;;;;;2237805;56;21018;-75
2021/07/14 12:48:03;;;;;;;2.10;0.90;;;23.90;72.00;;;;;;2238304;56;21090;-75
2021/07/14 12:50:31;;;;;;;2.15;1.00;;;23.90;71.40;;;;;;2235169;56;21603;-74
2021/07/14 12:52:58;;;;;;;1.90;1.02;;;23.90;71.90;;;;;;2243440;56;20978;-74
2021/07/14 12:55:25;;;;;;;1.77;0.88;;;23.80;72.20;;;;;;2241571;55;21080;-75
2021/07/14 12:57:54;;;;;;;1.95;0.90;;;23.80;72.50;;;;;;2236561;56;21031;-75
2021/07/14 13:00:22;;;;;;;1.40;0.70;;;23.90;72.90;;;;;;2239706;56;20970;-74
2021/07/14 13:02:51;;;;;;;2.17;0.70;;;23.80;73.10;;;;;;2240747;56;21006;-75
2021/07/14 13:05:18;;;;;;;1.62;0.80;;;23.90;73.60;;;;;;2241807;55;20969;-73
2021/07/14 13:07:57;;;;;;;2.55;0.90;;;23.90;74.00;;;;;;2240091;56;20998;-75
2021/07/14 13:10:23;;;;;;;2.35;0.70;;;23.90;72.80;;;;;;2236697;56;21286;-75
2021/07/14 13:12:55;;;;;;;3.10;0.90;;;23.90;74.00;;;;;;2239604;56;21002;-75
2021/07/14 13:15:23;;;;;;;1.75;0.82;;;24.00;73.00;;;;;;2236258;56;20990;-75